sensor_id;sensor_type;location;lat;lon;timestamp;temperature;humidity
43842;DHT22;29495;49.970;20.842;2023-05-07T11:43:23;8.20;99.90
43842;DHT22;29495;49.970;20.842;2023-05-07T11:45:49;8.10;99.90
43842;DHT22;29495;49.970;20.842;2023-05-07T11:53:26;7.90;99.90
43842;DHT22;29495;49.970;20.842;2023-05-07T11:55:54;8.20;99.90
43842;DHT22;29495;49.970;20.842;2023-05-07T11:58:22;8.10;99.90
43842;DHT22;29495;49.970;20.842;2023-05-07T12:00:52;8.00;99.90
43842;DHT22;29495;49.970;20.842;2023-05-07T12:05:48;8.20;99.90
43842;DHT22;29495;49.970;20.842;2023-05-07T12:08:18;8.30;99.90
43842;DHT22;29495;49.970;20.842;2023-05-07T12:10:45;8.20;99.90
43842;DHT22;29495;49.970;20.842;2023-05-07T12:13:21;8.30;99.90
43842;DHT22;29495;49.970;20.842;2023-05-07T12:15:55;8.20;99.90
43842;DHT22;29495;49.970;20.842;2023-05-07T12:18:24;8.10;99.90
43842;DHT22;29495;49.970;20.842;2023-05-07T12:20:53;8.20;99.90
43842;DHT22;29495;49.970;20.842;2023-05-07T12:23:23;8.30;99.90
43842;DHT22;29495;49.970;20.842;2023-05-07T12:25:49;8.10;99.90
43842;DHT22;29495;49.970;20.842;2023-05-07T12:28:23;8.00;99.90
43842;DHT22;29495;49.970;20.842;2023-05-07T12:30:50;7.90;99.90
43842;DHT22;29495;49.970;20.842;2023-05-07T12:33:18;8.20;99.90
43842;DHT22;29495;49.970;20.842;2023-05-07T12:35:49;8.30;99.90
43842;DHT22;29495;49.970;20.842;2023-05-07T12:38:24;8.00;99.90
43842;DHT22;29495;49.970;20.842;2023-05-07T12:41:22;8.10;99.90
43842;DHT22;29495;49.970;20.842;2023-05-07T12:44:28;7.80;99.90
43842;DHT22;29495;49.970;20.842;2023-05-07T12:46:59;8.20;99.90
43842;DHT22;29495;49.970;20.842;2023-05-07T12:50:55;7.90;99.90
43842;DHT22;29495;49.970;20.842;2023-05-07T12:53:24;8.00;99.90
43842;DHT22;29495;49.970;20.842;2023-05-07T12:56:16;7.90;99.90
43842;DHT22;29495;49.970;20.842;2023-05-07T12:58:56;7.90;99.90
43842;DHT22;29495;49.970;20.842;2023-05-07T13:01:33;7.70;99.90
43842;DHT22;29495;49.970;20.842;2023-05-07T13:04:31;7.50;99.90
43842;DHT22;29495;49.970;20.842;2023-05-07T13:10:49;7.70;99.90
43842;DHT22;29495;49.970;20.842;2023-05-07T13:13:20;7.70;99.90
43842;DHT22;29495;49.970;20.842;2023-05-07T13:15:49;7.50;99.90
43842;DHT22;29495;49.970;20.842;2023-05-07T13:18:15;7.60;99.90
43842;DHT22;29495;49.970;20.842;2023-05-07T13:20:44;7.60;99.90
43842;DHT22;29495;49.970;20.842;2023-05-07T13:23:15;7.70;99.90
43842;DHT22;29495;49.970;20.842;2023-05-07T13:25:44;7.70;99.90
43842;DHT22;29495;49.970;20.842;2023-05-07T13:28:17;7.60;99.90
43842;DHT22;29495;49.970;20.842;2023-05-07T13:30:44;7.60;99.90
43842;DHT22;29495;49.970;20.842;2023-05-07T13:33:16;7.60;99.90
43842;DHT22;29495;49.970;20.842;2023-05-07T13:35:46;7.70;99.90
43842;DHT22;29495;49.970;20.842;2023-05-07T13:38:24;7.60;99.90
43842;DHT22;29495;49.970;20.842;2023-05-07T13:40:59;7.60;99.90
43842;DHT22;29495;49.970;20.842;2023-05-07T13:43:25;7.60;99.90
43842;DHT22;29495;49.970;20.842;2023-05-07T13:45:51;7.60;99.90
43842;DHT22;29495;49.970;20.842;2023-05-07T13:48:17;7.70;99.90
43842;DHT22;29495;49.970;20.842;2023-05-07T13:50:43;7.80;99.90
43842;DHT22;29495;49.970;20.842;2023-05-07T13:53:12;8.00;99.90
43842;DHT22;29495;49.970;20.842;2023-05-07T13:55:41;8.00;99.90
43842;DHT22;29495;49.970;20.842;2023-05-07T13:58:07;8.20;99.90
43842;DHT22;29495;49.970;20.842;2023-05-07T14:00:33;8.40;99.90
43842;DHT22;29495;49.970;20.842;2023-05-07T14:03:00;8.50;99.90
43842;DHT22;29495;49.970;20.842;2023-05-07T14:05:27;8.10;99.90
43842;DHT22;29495;49.970;20.842;2023-05-07T14:07:59;8.10;99.90
43842;DHT22;29495;49.970;20.842;2023-05-07T14:10:26;8.10;99.90
43842;DHT22;29495;49.970;20.842;2023-05-07T14:12:52;7.90;99.90
43842;DHT22;29495;49.970;20.842;2023-05-07T14:15:18;8.00;99.90
43842;DHT22;29495;49.970;20.842;2023-05-07T14:17:45;8.10;99.90
43842;DHT22;29495;49.970;20.842;2023-05-07T14:20:12;8.20;99.90
43842;DHT22;29495;49.970;20.842;2023-05-07T14:22:38;8.40;99.90
43842;DHT22;29495;49.970;20.842;2023-05-07T14:25:05;8.20;99.90
43842;DHT22;29495;49.970;20.842;2023-05-07T14:27:32;8.30;99.90
43842;DHT22;29495;49.970;20.842;2023-05-07T14:29:58;8.40;99.90
43842;DHT22;29495;49.970;20.842;2023-05-07T14:32:25;8.40;99.90
43842;DHT22;29495;49.970;20.842;2023-05-07T14:34:51;8.20;99.90
43842;DHT22;29495;49.970;20.842;2023-05-07T14:37:17;8.10;99.90
43842;DHT22;29495;49.970;20.842;2023-05-07T14:39:45;8.20;99.90
43842;DHT22;29495;49.970;20.842;2023-05-07T14:42:12;8.40;99.90
43842;DHT22;29495;49.970;20.842;2023-05-07T14:44:40;8.50;99.90
43842;DHT22;29495;49.970;20.842;2023-05-07T14:47:07;8.50;99.90
43842;DHT22;29495;49.970;20.842;2023-05-07T14:49:34;8.60;99.90
43842;DHT22;29495;49.970;20.842;2023-05-07T14:52:00;8.40;99.90
43842;DHT22;29495;49.970;20.842;2023-05-07T14:54:27;8.50;99.90
43842;DHT22;29495;49.970;20.842;2023-05-07T14:56:56;8.30;99.90
43842;DHT22;29495;49.970;20.842;2023-05-07T14:59:22;8.50;99.90
43842;DHT22;29495;49.970;20.842;2023-05-07T15:01:50;8.10;99.90
43842;DHT22;29495;49.970;20.842;2023-05-07T15:04:16;8.20;99.90
43842;DHT22;29495;49.970;20.842;2023-05-07T15:06:43;8.20;99.90
43842;DHT22;29495;49.970;20.842;2023-05-07T15:09:09;8.10;99.90
43842;DHT22;29495;49.970;20.842;2023-05-07T15:12:13;8.10;99.90
43842;DHT22;29495;49.970;20.842;2023-05-07T15:15:04;8.10;99.90
43842;DHT22;29495;49.970;20.842;2023-05-07T15:45:08;8.00;99.90
